sensor_id;sensor_type;location;lat;lon;timestamp;pressure;altitude;pressure_sealevel;temperature;humidity
70370;BME280;57790;51.356;-2.906;2024-01-30T00:02:56;102089.59;;;12.52;100.00
70370;BME280;57790;51.356;-2.906;2024-01-30T00:05:57;102084.13;;;12.63;100.00
70370;BME280;57790;51.356;-2.906;2024-01-30T00:08:57;102095.44;;;12.65;100.00
70370;BME280;57790;51.356;-2.906;2024-01-30T00:11:58;102110.59;;;12.65;100.00
70370;BME280;57790;51.356;-2.906;2024-01-30T00:14:58;102121.06;;;12.66;100.00
70370;BME280;57790;51.356;-2.906;2024-01-30T00:17:59;102131.88;;;12.65;100.00
70370;BME280;57790;51.356;-2.906;2024-01-30T00:20:59;102134.13;;;12.60;100.00
70370;BME280;57790;51.356;-2.906;2024-01-30T00:23:59;102143.47;;;12.54;100.00
70370;BME280;57790;51.356;-2.906;2024-01-30T00:27:00;102145.03;;;12.47;100.00
70370;BME280;57790;51.356;-2.906;2024-01-30T00:30:00;102144.06;;;12.48;100.00
70370;BME280;57790;51.356;-2.906;2024-01-30T00:33:00;102143.91;;;12.49;100.00
70370;BME280;57790;51.356;-2.906;2024-01-30T00:36:01;102145.03;;;12.47;100.00
70370;BME280;57790;51.356;-2.906;2024-01-30T00:39:01;102160.84;;;12.39;100.00
70370;BME280;57790;51.356;-2.906;2024-01-30T00:42:04;102165.19;;;12.30;100.00
70370;BME280;57790;51.356;-2.906;2024-01-30T00:45:04;102173.28;;;12.29;100.00
70370;BME280;57790;51.356;-2.906;2024-01-30T00:48:06;102166.84;;;12.21;100.00
70370;BME280;57790;51.356;-2.906;2024-01-30T00:51:07;102174.81;;;12.21;100.00
70370;BME280;57790;51.356;-2.906;2024-01-30T00:54:07;102173.13;;;12.11;100.00
70370;BME280;57790;51.356;-2.906;2024-01-30T00:57:08;102176.34;;;12.14;100.00
70370;BME280;57790;51.356;-2.906;2024-01-30T01:00:09;102175.63;;;12.12;100.00
70370;BME280;57790;51.356;-2.906;2024-01-30T01:03:09;102177.19;;;12.05;100.00
70370;BME280;57790;51.356;-2.906;2024-01-30T01:06:10;102176.31;;;11.95;100.00
70370;BME280;57790;51.356;-2.906;2024-01-30T01:09:11;102176.03;;;11.98;100.00
70370;BME280;57790;51.356;-2.906;2024-01-30T01:12:12;102179.66;;;11.97;100.00
70370;BME280;57790;51.356;-2.906;2024-01-30T01:15:12;102191.81;;;11.90;100.00
70370;BME280;57790;51.356;-2.906;2024-01-30T01:18:13;102194.47;;;11.90;100.00
70370;BME280;57790;51.356;-2.906;2024-01-30T01:21:13;102199.66;;;11.91;100.00
70370;BME280;57790;51.356;-2.906;2024-01-30T01:24:13;102204.00;;;11.93;100.00
70370;BME280;57790;51.356;-2.906;2024-01-30T01:27:14;102218.41;;;11.90;100.00
70370;BME280;57790;51.356;-2.906;2024-01-30T01:30:14;102217.69;;;11.88;100.00
70370;BME280;57790;51.356;-2.906;2024-01-30T01:33:21;102228.53;;;11.75;100.00
70370;BME280;57790;51.356;-2.906;2024-01-30T01:36:21;102227.31;;;11.79;100.00
70370;BME280;57790;51.356;-2.906;2024-01-30T01:39:22;102224.56;;;11.70;100.00
70370;BME280;57790;51.356;-2.906;2024-01-30T01:42:23;102222.38;;;11.75;100.00
70370;BME280;57790;51.356;-2.906;2024-01-30T01:45:24;102234.94;;;11.73;100.00
70370;BME280;57790;51.356;-2.906;2024-01-30T01:48:25;102235.28;;;11.58;100.00
70370;BME280;57790;51.356;-2.906;2024-01-30T01:51:27;102246.91;;;11.57;100.00
70370;BME280;57790;51.356;-2.906;2024-01-30T01:54:28;102257.53;;;11.57;100.00
70370;BME280;57790;51.356;-2.906;2024-01-30T01:57:29;102264.38;;;11.60;100.00
70370;BME280;57790;51.356;-2.906;2024-01-30T02:00:30;102276.50;;;11.53;100.00
70370;BME280;57790;51.356;-2.906;2024-01-30T02:03:31;102279.72;;;11.56;100.00
70370;BME280;57790;51.356;-2.906;2024-01-30T02:06:32;102291.31;;;11.55;100.00
70370;BME280;57790;51.356;-2.906;2024-01-30T02:09:33;102304.88;;;11.52;100.00
70370;BME280;57790;51.356;-2.906;2024-01-30T02:12:34;102319.13;;;11.51;100.00
70370;BME280;57790;51.356;-2.906;2024-01-30T02:15:34;102314.56;;;11.42;100.00
70370;BME280;57790;51.356;-2.906;2024-01-30T02:18:34;102322.09;;;11.37;100.00
70370;BME280;57790;51.356;-2.906;2024-01-30T02:21:35;102344.97;;;11.28;100.00
70370;BME280;57790;51.356;-2.906;2024-01-30T02:24:36;102348.63;;;11.37;100.00
70370;BME280;57790;51.356;-2.906;2024-01-30T02:27:36;102367.22;;;11.37;100.00
70370;BME280;57790;51.356;-2.906;2024-01-30T02:30:37;102360.56;;;11.43;100.00
70370;BME280;57790;51.356;-2.906;2024-01-30T02:33:37;102380.06;;;11.32;100.00
70370;BME280;57790;51.356;-2.906;2024-01-30T02:36:37;102388.59;;;11.36;100.00
70370;BME280;57790;51.356;-2.906;2024-01-30T02:39:38;102381.88;;;11.31;100.00
70370;BME280;57790;51.356;-2.906;2024-01-30T02:42:39;102391.69;;;11.20;100.00
70370;BME280;57790;51.356;-2.906;2024-01-30T02:45:39;102396.47;;;11.26;100.00
70370;BME280;57790;51.356;-2.906;2024-01-30T02:48:40;102385.66;;;11.18;100.00
70370;BME280;57790;51.356;-2.906;2024-01-30T02:51:40;102404.81;;;11.21;100.00
70370;BME280;57790;51.356;-2.906;2024-01-30T02:54:42;102398.16;;;11.27;100.00
70370;BME280;57790;51.356;-2.906;2024-01-30T02:57:42;102402.06;;;11.12;100.00
70370;BME280;57790;51.356;-2.906;2024-01-30T03:00:43;102404.81;;;11.21;100.00
70370;BME280;57790;51.356;-2.906;2024-01-30T03:03:43;102414.72;;;11.19;100.00
70370;BME280;57790;51.356;-2.906;2024-01-30T03:06:47;102430.13;;;11.25;100.00
70370;BME280;57790;51.356;-2.906;2024-01-30T03:09:47;102425.09;;;11.22;100.00
70370;BME280;57790;51.356;-2.906;2024-01-30T03:12:48;102431.25;;;11.23;100.00
70370;BME280;57790;51.356;-2.906;2024-01-30T03:15:48;102439.19;;;11.23;100.00
70370;BME280;57790;51.356;-2.906;2024-01-30T03:18:49;102445.03;;;11.17;100.00
70370;BME280;57790;51.356;-2.906;2024-01-30T03:21:50;102446.13;;;11.14;100.00
70370;BME280;57790;51.356;-2.906;2024-01-30T03:24:51;102449.38;;;11.18;100.00
70370;BME280;57790;51.356;-2.906;2024-01-30T03:27:51;102450.56;;;11.14;100.00
70370;BME280;57790;51.356;-2.906;2024-01-30T03:30:52;102455.03;;;11.13;100.00
70370;BME280;57790;51.356;-2.906;2024-01-30T03:33:52;102467.09;;;11.17;100.00
70370;BME280;57790;51.356;-2.906;2024-01-30T03:36:53;102466.00;;;11.09;100.00
70370;BME280;57790;51.356;-2.906;2024-01-30T03:39:53;102463.38;;;11.09;100.00
70370;BME280;57790;51.356;-2.906;2024-01-30T03:42:53;102469.13;;;11.14;100.00
70370;BME280;57790;51.356;-2.906;2024-01-30T03:45:54;102470.94;;;11.13;100.00
70370;BME280;57790;51.356;-2.906;2024-01-30T03:48:54;102471.78;;;11.14;100.00
70370;BME280;57790;51.356;-2.906;2024-01-30T03:51:54;102478.19;;;11.11;100.00
70370;BME280;57790;51.356;-2.906;2024-01-30T03:54:55;102482.53;;;11.12;100.00
70370;BME280;57790;51.356;-2.906;2024-01-30T03:57:55;102474.94;;;11.08;100.00
70370;BME280;57790;51.356;-2.906;2024-01-30T04:00:56;102490.16;;;11.06;100.00
70370;BME280;57790;51.356;-2.906;2024-01-30T04:03:56;102484.13;;;11.03;100.00
70370;BME280;57790;51.356;-2.906;2024-01-30T04:06:56;102483.16;;;11.05;100.00
70370;BME280;57790;51.356;-2.906;2024-01-30T04:09:57;102479.66;;;11.04;100.00
70370;BME280;57790;51.356;-2.906;2024-01-30T04:12:57;102484.84;;;11.06;100.00
70370;BME280;57790;51.356;-2.906;2024-01-30T04:15:59;102498.25;;;11.04;100.00
70370;BME280;57790;51.356;-2.906;2024-01-30T04:19:01;102490.28;;;11.04;100.00
70370;BME280;57790;51.356;-2.906;2024-01-30T04:22:02;102495.97;;;10.99;100.00
70370;BME280;57790;51.356;-2.906;2024-01-30T04:25:03;102505.84;;;10.97;100.00
70370;BME280;57790;51.356;-2.906;2024-01-30T04:28:03;102506.31;;;10.91;100.00
70370;BME280;57790;51.356;-2.906;2024-01-30T04:31:04;102527.31;;;10.94;100.00
70370;BME280;57790;51.356;-2.906;2024-01-30T04:34:05;102528.41;;;10.92;100.00
70370;BME280;57790;51.356;-2.906;2024-01-30T04:37:05;102539.59;;;10.95;100.00
70370;BME280;57790;51.356;-2.906;2024-01-30T04:40:06;102554.81;;;10.93;100.00
70370;BME280;57790;51.356;-2.906;2024-01-30T04:43:06;102566.50;;;10.91;100.00
70370;BME280;57790;51.356;-2.906;2024-01-30T04:46:07;102560.59;;;10.76;100.00
70370;BME280;57790;51.356;-2.906;2024-01-30T04:49:07;102568.56;;;10.87;100.00
70370;BME280;57790;51.356;-2.906;2024-01-30T04:52:08;102575.31;;;10.91;100.00
70370;BME280;57790;51.356;-2.906;2024-01-30T04:55:08;102572.06;;;10.88;100.00
70370;BME280;57790;51.356;-2.906;2024-01-30T04:58:09;102572.66;;;10.91;100.00
70370;BME280;57790;51.356;-2.906;2024-01-30T05:01:09;102580.59;;;10.80;100.00
70370;BME280;57790;51.356;-2.906;2024-01-30T05:04:10;102587.13;;;10.87;100.00
70370;BME280;57790;51.356;-2.906;2024-01-30T05:07:11;102590.50;;;10.89;100.00
70370;BME280;57790;51.356;-2.906;2024-01-30T05:10:11;102595.94;;;10.88;100.00
70370;BME280;57790;51.356;-2.906;2024-01-30T05:13:12;102601.97;;;10.90;100.00
70370;BME280;57790;51.356;-2.906;2024-01-30T05:16:14;102599.56;;;10.87;100.00
70370;BME280;57790;51.356;-2.906;2024-01-30T05:19:14;102610.19;;;10.87;100.00
70370;BME280;57790;51.356;-2.906;2024-01-30T05:22:14;102621.50;;;10.89;100.00
70370;BME280;57790;51.356;-2.906;2024-01-30T05:25:15;102630.44;;;10.88;100.00
70370;BME280;57790;51.356;-2.906;2024-01-30T05:28:16;102646.94;;;10.80;100.00
70370;BME280;57790;51.356;-2.906;2024-01-30T05:31:16;102647.53;;;10.84;100.00
70370;BME280;57790;51.356;-2.906;2024-01-30T05:34:16;102646.19;;;10.78;100.00
70370;BME280;57790;51.356;-2.906;2024-01-30T05:37:17;102654.16;;;10.78;100.00
70370;BME280;57790;51.356;-2.906;2024-01-30T05:40:18;102654.63;;;10.72;100.00
70370;BME280;57790;51.356;-2.906;2024-01-30T05:43:18;102673.47;;;10.80;100.00
70370;BME280;57790;51.356;-2.906;2024-01-30T05:46:18;102673.69;;;10.77;100.00
70370;BME280;57790;51.356;-2.906;2024-01-30T05:49:19;102669.22;;;10.78;100.00
70370;BME280;57790;51.356;-2.906;2024-01-30T05:52:19;102674.91;;;10.73;100.00
70370;BME280;57790;51.356;-2.906;2024-01-30T05:55:20;102694.56;;;10.70;100.00
70370;BME280;57790;51.356;-2.906;2024-01-30T05:58:20;102687.63;;;10.68;100.00
70370;BME280;57790;51.356;-2.906;2024-01-30T06:01:21;102697.81;;;10.74;100.00
70370;BME280;57790;51.356;-2.906;2024-01-30T06:04:22;102705.72;;;10.63;100.00
70370;BME280;57790;51.356;-2.906;2024-01-30T06:07:22;102704.75;;;10.64;100.00
70370;BME280;57790;51.356;-2.906;2024-01-30T06:10:23;102712.34;;;10.68;100.00
70370;BME280;57790;51.356;-2.906;2024-01-30T06:13:23;102708.88;;;10.68;100.00
70370;BME280;57790;51.356;-2.906;2024-01-30T06:16:23;102709.09;;;10.65;100.00
70370;BME280;57790;51.356;-2.906;2024-01-30T06:19:24;102721.91;;;10.71;100.00
70370;BME280;57790;51.356;-2.906;2024-01-30T06:22:24;102725.00;;;10.65;100.00
70370;BME280;57790;51.356;-2.906;2024-01-30T06:25:25;102730.97;;;10.56;100.00
70370;BME280;57790;51.356;-2.906;2024-01-30T06:28:25;102734.03;;;10.62;100.00
70370;BME280;57790;51.356;-2.906;2024-01-30T06:31:25;102736.59;;;10.64;100.00
70370;BME280;57790;51.356;-2.906;2024-01-30T06:34:26;102734.41;;;10.58;100.00
70370;BME280;57790;51.356;-2.906;2024-01-30T06:37:26;102748.16;;;10.63;100.00
70370;BME280;57790;51.356;-2.906;2024-01-30T06:40:26;102740.31;;;10.61;100.00
70370;BME280;57790;51.356;-2.906;2024-01-30T06:43:27;102762.59;;;10.59;100.00
70370;BME280;57790;51.356;-2.906;2024-01-30T06:46:27;102759.00;;;10.60;100.00
70370;BME280;57790;51.356;-2.906;2024-01-30T06:49:28;102766.09;;;10.59;100.00
70370;BME280;57790;51.356;-2.906;2024-01-30T06:52:28;102767.25;;;10.55;100.00
70370;BME280;57790;51.356;-2.906;2024-01-30T06:55:29;102771.72;;;10.55;100.00
70370;BME280;57790;51.356;-2.906;2024-01-30T06:58:29;102784.25;;;10.53;100.00
70370;BME280;57790;51.356;-2.906;2024-01-30T07:01:29;102785.22;;;10.52;100.00
70370;BME280;57790;51.356;-2.906;2024-01-30T07:04:30;102787.75;;;10.53;100.00
70370;BME280;57790;51.356;-2.906;2024-01-30T07:07:32;102793.59;;;10.58;100.00
70370;BME280;57790;51.356;-2.906;2024-01-30T07:10:33;102800.59;;;10.59;100.00
70370;BME280;57790;51.356;-2.906;2024-01-30T07:13:34;102801.53;;;10.58;100.00
70370;BME280;57790;51.356;-2.906;2024-01-30T07:16:35;102801.53;;;10.58;100.00
70370;BME280;57790;51.356;-2.906;2024-01-30T07:19:36;102809.81;;;10.54;100.00
70370;BME280;57790;51.356;-2.906;2024-01-30T07:22:36;102806.53;;;10.50;100.00
70370;BME280;57790;51.356;-2.906;2024-01-30T07:25:37;102815.00;;;10.55;100.00
70370;BME280;57790;51.356;-2.906;2024-01-30T07:28:37;102822.03;;;10.56;100.00
70370;BME280;57790;51.356;-2.906;2024-01-30T07:31:38;102820.97;;;10.59;100.00
70370;BME280;57790;51.356;-2.906;2024-01-30T07:34:38;102825.84;;;10.52;100.00
70370;BME280;57790;51.356;-2.906;2024-01-30T07:37:39;102832.72;;;10.55;100.00
70370;BME280;57790;51.356;-2.906;2024-01-30T07:40:40;102830.31;;;10.52;100.00
70370;BME280;57790;51.356;-2.906;2024-01-30T07:43:43;102845.97;;;10.55;100.00
70370;BME280;57790;51.356;-2.906;2024-01-30T07:46:44;102846.22;;;10.52;100.00
70370;BME280;57790;51.356;-2.906;2024-01-30T07:49:44;102856.31;;;10.47;100.00
70370;BME280;57790;51.356;-2.906;2024-01-30T07:52:44;102849.81;;;10.51;100.00
70370;BME280;57790;51.356;-2.906;2024-01-30T07:55:46;102853.22;;;10.53;100.00
70370;BME280;57790;51.356;-2.906;2024-01-30T07:58:46;102857.25;;;10.58;100.00
70370;BME280;57790;51.356;-2.906;2024-01-30T08:01:47;102862.84;;;10.54;100.00
70370;BME280;57790;51.356;-2.906;2024-01-30T08:04:47;102872.44;;;10.56;100.00
70370;BME280;57790;51.356;-2.906;2024-01-30T08:07:49;102864.53;;;10.55;100.00
70370;BME280;57790;51.356;-2.906;2024-01-30T08:10:50;102870.06;;;10.52;100.00
70370;BME280;57790;51.356;-2.906;2024-01-30T08:13:50;102882.25;;;10.54;100.00
70370;BME280;57790;51.356;-2.906;2024-01-30T08:16:50;102884.19;;;10.52;100.00
70370;BME280;57790;51.356;-2.906;2024-01-30T08:19:51;102882.16;;;10.56;100.00
70370;BME280;57790;51.356;-2.906;2024-01-30T08:22:52;102890.88;;;10.58;100.00
70370;BME280;57790;51.356;-2.906;2024-01-30T08:25:52;102896.59;;;10.52;100.00
70370;BME280;57790;51.356;-2.906;2024-01-30T08:28:53;102913.25;;;10.54;100.00
70370;BME280;57790;51.356;-2.906;2024-01-30T08:31:53;102915.72;;;10.57;100.00
70370;BME280;57790;51.356;-2.906;2024-01-30T08:34:55;102918.25;;;10.58;100.00
70370;BME280;57790;51.356;-2.906;2024-01-30T08:37:56;102923.84;;;10.54;100.00
70370;BME280;57790;51.356;-2.906;2024-01-30T08:40:56;102927.16;;;10.57;100.00
70370;BME280;57790;51.356;-2.906;2024-01-30T08:43:56;102925.34;;;10.58;100.00
70370;BME280;57790;51.356;-2.906;2024-01-30T08:46:57;102937.84;;;10.56;100.00
70370;BME280;57790;51.356;-2.906;2024-01-30T08:49:57;102949.97;;;10.60;100.00
70370;BME280;57790;51.356;-2.906;2024-01-30T08:52:58;102955.50;;;10.57;100.00
70370;BME280;57790;51.356;-2.906;2024-01-30T08:55:58;102961.53;;;10.59;100.00
70370;BME280;57790;51.356;-2.906;2024-01-30T08:58:59;102974.06;;;10.57;100.00
70370;BME280;57790;51.356;-2.906;2024-01-30T09:01:59;102978.28;;;10.59;100.00
70370;BME280;57790;51.356;-2.906;2024-01-30T09:05:00;102978.50;;;10.56;100.00
70370;BME280;57790;51.356;-2.906;2024-01-30T09:08:00;102977.56;;;10.57;100.00
70370;BME280;57790;51.356;-2.906;2024-01-30T09:11:00;102980.09;;;10.59;100.00
70370;BME280;57790;51.356;-2.906;2024-01-30T09:14:01;102985.59;;;10.56;100.00
70370;BME280;57790;51.356;-2.906;2024-01-30T09:17:01;102995.91;;;10.60;100.00
70370;BME280;57790;51.356;-2.906;2024-01-30T09:20:04;102997.91;;;10.57;100.00
70370;BME280;57790;51.356;-2.906;2024-01-30T09:23:04;103006.19;;;10.65;100.00
70370;BME280;57790;51.356;-2.906;2024-01-30T09:26:05;103003.75;;;10.62;100.00
70370;BME280;57790;51.356;-2.906;2024-01-30T09:29:05;103007.03;;;10.65;100.00
70370;BME280;57790;51.356;-2.906;2024-01-30T09:32:06;103022.19;;;10.63;100.00
70370;BME280;57790;51.356;-2.906;2024-01-30T09:35:07;103026.44;;;10.66;100.00
70370;BME280;57790;51.356;-2.906;2024-01-30T09:38:07;103031.63;;;10.67;100.00
70370;BME280;57790;51.356;-2.906;2024-01-30T09:41:09;103036.84;;;10.69;100.00
70370;BME280;57790;51.356;-2.906;2024-01-30T09:44:12;103044.06;;;10.67;100.00
70370;BME280;57790;51.356;-2.906;2024-01-30T09:47:12;103054.66;;;10.67;100.00
70370;BME280;57790;51.356;-2.906;2024-01-30T09:50:14;103052.22;;;10.64;100.00
70370;BME280;57790;51.356;-2.906;2024-01-30T09:53:15;103060.81;;;10.67;100.00
70370;BME280;57790;51.356;-2.906;2024-01-30T09:56:17;103062.41;;;10.70;100.00
70370;BME280;57790;51.356;-2.906;2024-01-30T09:59:17;103071.97;;;10.72;100.00
70370;BME280;57790;51.356;-2.906;2024-01-30T10:02:18;103081.63;;;10.73;100.00
70370;BME280;57790;51.356;-2.906;2024-01-30T10:05:19;103089.47;;;10.75;100.00
70370;BME280;57790;51.356;-2.906;2024-01-30T10:08:20;103098.63;;;10.71;100.00
70370;BME280;57790;51.356;-2.906;2024-01-30T10:11:21;103110.94;;;10.72;100.00
70370;BME280;57790;51.356;-2.906;2024-01-30T10:14:22;103119.84;;;10.71;100.00
70370;BME280;57790;51.356;-2.906;2024-01-30T10:17:25;103130.47;;;10.71;100.00
70370;BME280;57790;51.356;-2.906;2024-01-30T10:20:25;103135.66;;;10.72;100.00
70370;BME280;57790;51.356;-2.906;2024-01-30T10:23:26;103145.19;;;10.75;100.00
70370;BME280;57790;51.356;-2.906;2024-01-30T10:26:26;103145.94;;;10.77;100.00
70370;BME280;57790;51.356;-2.906;2024-01-30T10:29:28;103148.59;;;10.77;100.00
70370;BME280;57790;51.356;-2.906;2024-01-30T10:32:29;103147.53;;;10.80;100.00
70370;BME280;57790;51.356;-2.906;2024-01-30T10:35:29;103160.91;;;10.78;100.00
70370;BME280;57790;51.356;-2.906;2024-01-30T10:38:31;103167.06;;;10.79;100.00
70370;BME280;57790;51.356;-2.906;2024-01-30T10:41:35;103172.25;;;10.80;100.00
70370;BME280;57790;51.356;-2.906;2024-01-30T10:48:06;103183.81;;;10.79;100.00
70370;BME280;57790;51.356;-2.906;2024-01-30T10:51:10;103196.34;;;10.77;100.00
70370;BME280;57790;51.356;-2.906;2024-01-30T10:54:11;103193.06;;;10.73;100.00
70370;BME280;57790;51.356;-2.906;2024-01-30T10:57:13;103198.06;;;10.78;100.00
70370;BME280;57790;51.356;-2.906;2024-01-30T11:00:16;103204.94;;;10.81;100.00
70370;BME280;57790;51.356;-2.906;2024-01-30T11:03:17;103209.41;;;10.80;100.00
70370;BME280;57790;51.356;-2.906;2024-01-30T11:06:18;103215.13;;;10.74;100.00
70370;BME280;57790;51.356;-2.906;2024-01-30T11:09:18;103220.03;;;10.80;100.00
70370;BME280;57790;51.356;-2.906;2024-01-30T11:12:23;103216.63;;;10.78;100.00
70370;BME280;57790;51.356;-2.906;2024-01-30T11:15:24;103222.69;;;10.80;100.00
70370;BME280;57790;51.356;-2.906;2024-01-30T11:18:25;103220.59;;;10.85;100.00
70370;BME280;57790;51.356;-2.906;2024-01-30T11:21:26;103210.81;;;10.86;100.00
70370;BME280;57790;51.356;-2.906;2024-01-30T11:24:27;103210.72;;;10.87;100.00
70370;BME280;57790;51.356;-2.906;2024-01-30T11:27:27;103206.44;;;10.85;100.00
70370;BME280;57790;51.356;-2.906;2024-01-30T11:30:30;103218.00;;;10.84;100.00
70370;BME280;57790;51.356;-2.906;2024-01-30T11:33:31;103212.63;;;10.85;100.00
70370;BME280;57790;51.356;-2.906;2024-01-30T11:36:31;103202.94;;;10.84;100.00
70370;BME280;57790;51.356;-2.906;2024-01-30T11:39:35;103218.13;;;10.82;100.00
70370;BME280;57790;51.356;-2.906;2024-01-30T11:42:37;103221.50;;;10.84;100.00
70370;BME280;57790;51.356;-2.906;2024-01-30T11:45:39;103228.44;;;10.87;100.00
70370;BME280;57790;51.356;-2.906;2024-01-30T11:48:41;103226.63;;;10.87;100.00
70370;BME280;57790;51.356;-2.906;2024-01-30T11:51:41;103232.91;;;10.86;100.00
70370;BME280;57790;51.356;-2.906;2024-01-30T11:54:42;103231.63;;;10.92;100.00
70370;BME280;57790;51.356;-2.906;2024-01-30T11:57:43;103231.84;;;10.89;100.00
70370;BME280;57790;51.356;-2.906;2024-01-30T12:00:53;103243.50;;;10.86;100.00
70370;BME280;57790;51.356;-2.906;2024-01-30T12:03:55;103245.00;;;10.90;100.00
70370;BME280;57790;51.356;-2.906;2024-01-30T12:06:57;103241.50;;;10.90;100.00
70370;BME280;57790;51.356;-2.906;2024-01-30T12:09:57;103245.94;;;10.89;100.00
70370;BME280;57790;51.356;-2.906;2024-01-30T12:12:58;103236.09;;;10.91;100.00
70370;BME280;57790;51.356;-2.906;2024-01-30T12:15:59;103240.53;;;10.91;100.00
70370;BME280;57790;51.356;-2.906;2024-01-30T12:19:00;103232.91;;;10.86;100.00
70370;BME280;57790;51.356;-2.906;2024-01-30T12:22:02;103229.94;;;10.91;100.00
70370;BME280;57790;51.356;-2.906;2024-01-30T12:25:04;103229.94;;;10.91;100.00
70370;BME280;57790;51.356;-2.906;2024-01-30T12:28:05;103226.84;;;10.97;100.00
70370;BME280;57790;51.356;-2.906;2024-01-30T12:31:06;103232.38;;;10.94;100.00
70370;BME280;57790;51.356;-2.906;2024-01-30T12:34:06;103240.22;;;10.95;100.00
70370;BME280;57790;51.356;-2.906;2024-01-30T12:37:06;103245.53;;;10.95;100.00
70370;BME280;57790;51.356;-2.906;2024-01-30T12:40:09;103254.22;;;10.97;100.00
70370;BME280;57790;51.356;-2.906;2024-01-30T12:43:10;103251.16;;;10.91;100.00
70370;BME280;57790;51.356;-2.906;2024-01-30T12:46:11;103247.22;;;10.96;100.00
70370;BME280;57790;51.356;-2.906;2024-01-30T12:49:11;103253.28;;;10.98;100.00
70370;BME280;57790;51.356;-2.906;2024-01-30T12:52:13;103251.06;;;10.92;100.00
70370;BME280;57790;51.356;-2.906;2024-01-30T12:55:14;103262.41;;;10.94;100.00
70370;BME280;57790;51.356;-2.906;2024-01-30T12:58:15;103264.31;;;10.92;100.00
70370;BME280;57790;51.356;-2.906;2024-01-30T13:01:15;103271.84;;;10.98;100.00
70370;BME280;57790;51.356;-2.906;2024-01-30T13:04:16;103269.13;;;11.00;100.00
70370;BME280;57790;51.356;-2.906;2024-01-30T13:07:16;103283.88;;;11.04;100.00
70370;BME280;57790;51.356;-2.906;2024-01-30T13:10:17;103282.09;;;11.05;100.00
70370;BME280;57790;51.356;-2.906;2024-01-30T13:13:17;103281.94;;;10.93;100.00
70370;BME280;57790;51.356;-2.906;2024-01-30T13:16:18;103280.78;;;10.97;100.00
70370;BME280;57790;51.356;-2.906;2024-01-30T13:19:18;103271.13;;;10.96;100.00
70370;BME280;57790;51.356;-2.906;2024-01-30T13:22:19;103269.03;;;11.01;100.00
70370;BME280;57790;51.356;-2.906;2024-01-30T13:25:21;103281.13;;;11.06;100.00
70370;BME280;57790;51.356;-2.906;2024-01-30T13:28:21;103282.28;;;11.01;100.00
70370;BME280;57790;51.356;-2.906;2024-01-30T13:31:22;103288.47;;;11.02;100.00
70370;BME280;57790;51.356;-2.906;2024-01-30T13:34:22;103290.78;;;11.07;100.00
70370;BME280;57790;51.356;-2.906;2024-01-30T13:37:23;103277.72;;;11.03;100.00
70370;BME280;57790;51.356;-2.906;2024-01-30T13:40:23;103287.28;;;11.06;100.00
70370;BME280;57790;51.356;-2.906;2024-01-30T13:43:24;103299.59;;;11.07;100.00
70370;BME280;57790;51.356;-2.906;2024-01-30T13:46:24;103298.41;;;10.98;100.00
70370;BME280;57790;51.356;-2.906;2024-01-30T13:49:24;103306.19;;;11.01;100.00
70370;BME280;57790;51.356;-2.906;2024-01-30T13:52:25;103293.88;;;11.00;100.00
70370;BME280;57790;51.356;-2.906;2024-01-30T13:55:25;103295.69;;;11.00;100.00
70370;BME280;57790;51.356;-2.906;2024-01-30T13:58:25;103294.28;;;11.07;100.00
70370;BME280;57790;51.356;-2.906;2024-01-30T14:01:26;103304.06;;;11.07;100.00
70370;BME280;57790;51.356;-2.906;2024-01-30T14:04:26;103299.59;;;11.07;100.00
70370;BME280;57790;51.356;-2.906;2024-01-30T14:07:26;103312.97;;;11.06;100.00
70370;BME280;57790;51.356;-2.906;2024-01-30T14:10:27;103312.78;;;11.09;100.00
70370;BME280;57790;51.356;-2.906;2024-01-30T14:13:27;103312.25;;;11.03;100.00
70370;BME280;57790;51.356;-2.906;2024-01-30T14:16:28;103306.81;;;11.05;100.00
70370;BME280;57790;51.356;-2.906;2024-01-30T14:19:29;103311.28;;;11.05;100.00
70370;BME280;57790;51.356;-2.906;2024-01-30T14:22:29;103308.00;;;11.01;100.00
70370;BME280;57790;51.356;-2.906;2024-01-30T14:25:29;103314.69;;;11.07;100.00
70370;BME280;57790;51.356;-2.906;2024-01-30T14:28:30;103301.50;;;11.05;100.00
70370;BME280;57790;51.356;-2.906;2024-01-30T14:31:30;103302.38;;;11.06;100.00
70370;BME280;57790;51.356;-2.906;2024-01-30T14:34:31;103306.81;;;11.05;100.00
70370;BME280;57790;51.356;-2.906;2024-01-30T14:37:31;103308.63;;;11.05;100.00
70370;BME280;57790;51.356;-2.906;2024-01-30T14:40:32;103319.25;;;11.05;100.00
70370;BME280;57790;51.356;-2.906;2024-01-30T14:43:32;103310.31;;;11.06;100.00
70370;BME280;57790;51.356;-2.906;2024-01-30T14:46:33;103317.44;;;11.05;100.00
70370;BME280;57790;51.356;-2.906;2024-01-30T14:49:33;103308.53;;;11.06;100.00
70370;BME280;57790;51.356;-2.906;2024-01-30T14:52:34;103303.44;;;11.03;100.00
70370;BME280;57790;51.356;-2.906;2024-01-30T14:55:35;103303.44;;;11.03;100.00
70370;BME280;57790;51.356;-2.906;2024-01-30T14:58:36;103304.66;;;10.97;100.00
70370;BME280;57790;51.356;-2.906;2024-01-30T15:01:37;103297.56;;;10.98;100.00
70370;BME280;57790;51.356;-2.906;2024-01-30T15:04:37;103298.13;;;11.03;100.00
70370;BME280;57790;51.356;-2.906;2024-01-30T15:07:39;103296.22;;;11.05;100.00
70370;BME280;57790;51.356;-2.906;2024-01-30T15:10:39;103299.91;;;11.02;100.00
70370;BME280;57790;51.356;-2.906;2024-01-30T15:13:40;103312.13;;;11.05;100.00
70370;BME280;57790;51.356;-2.906;2024-01-30T15:16:40;103311.94;;;11.08;100.00
70370;BME280;57790;51.356;-2.906;2024-01-30T15:19:41;103310.97;;;11.09;100.00
70370;BME280;57790;51.356;-2.906;2024-01-30T15:22:41;103305.97;;;11.05;100.00
70370;BME280;57790;51.356;-2.906;2024-01-30T15:25:42;103314.56;;;11.08;100.00